Tenerife Sur - Aeropuerto en Canarias

latitud = 28° 2' 49''N | longitud = 016° 33' 40''W
64 metros sobre el nivel del mar |

Fecha, hora, temperatura, viento dirección y velocidad, humedad y presión.

  • 24-05-2018 15:00:00 | 22.20°C | Sudoeste |18.00 km/h | 55.00% | 1009.90 hPa
  • 24-05-2018 14:00:00 | 21.50°C | Sur |14.00 km/h | 60.00% | 1010.50 hPa
  • 24-05-2018 13:00:00 | 22.00°C | Sudoeste |13.00 km/h | 56.00% | 1010.70 hPa
  • 24-05-2018 12:00:00 | 22.50°C | Sur |16.00 km/h | 50.00% | 1010.70 hPa
  • 24-05-2018 11:00:00 | 21.60°C | Sur |14.00 km/h | 55.00% | 1010.60 hPa
  • 24-05-2018 10:00:00 | 21.20°C | Sudeste |10.00 km/h | 56.00% | 1010.30 hPa
  • 24-05-2018 09:00:00 | 20.20°C | Nordeste |4.00 km/h | 63.00% | 1010.10 hPa
  • 24-05-2018 08:00:00 | 17.70°C | Nordeste |6.00 km/h | 73.00% | 1009.70 hPa
  • 24-05-2018 07:00:00 | 16.70°C | Norte |6.00 km/h | 74.00% | 1009.10 hPa
  • 24-05-2018 06:00:00 | 0.00°C | Noroeste |9.00 km/h | 0.00% | 1008.90 hPa
  • 24-05-2018 05:00:00 | 16.40°C | Noroeste |14.00 km/h | 71.00% | 1009.00 hPa
  • 24-05-2018 04:00:00 | 16.70°C | Noroeste |13.00 km/h | 71.00% | 1009.20 hPa
  • 24-05-2018 03:00:00 | 17.40°C | Noroeste |12.00 km/h | 71.00% | 1009.70 hPa
  • 24-05-2018 02:00:00 | 16.50°C | Noroeste |11.00 km/h | 75.00% | 1010.20 hPa
  • 24-05-2018 01:00:00 | 18.10°C | Norte |5.00 km/h | 71.00% | 1010.40 hPa
  • 24-05-2018 00:00:00 | 18.00°C | Sudeste |5.00 km/h | 72.00% | 1010.70 hPa
  • 23-05-2018 23:00:00 | 17.80°C | Calma |0.00 km/h | 71.00% | 1010.50 hPa
  • 23-05-2018 22:00:00 | 18.40°C | Sur |7.00 km/h | 68.00% | 1010.00 hPa
  • 23-05-2018 21:00:00 | 19.20°C | Sur |7.00 km/h | 67.00% | 1009.60 hPa
  • 23-05-2018 20:00:00 | 19.60°C | Sudeste |10.00 km/h | 67.00% | 1009.20 hPa
  • 23-05-2018 19:00:00 | 20.10°C | Sudeste |14.00 km/h | 66.00% | 1009.10 hPa
  • 23-05-2018 18:00:00 | 20.50°C | Este |15.00 km/h | 65.00% | 1009.00 hPa
  • 23-05-2018 17:00:00 | 20.80°C | Este |15.00 km/h | 62.00% | 1009.30 hPa
  • 23-05-2018 16:00:00 | 20.40°C | Sudeste |14.00 km/h | 66.00% | 1009.40 hPa